Flight Track Log - Related Links

Times and Time Zones

All times are in EDT time to prevent confusion due to time zone crossing. See the UAL4422 flight status page for this flight to view local times or setup timezone preferences in your user account.

Time Position Orientation Groundspeed Altitude Reporting Facility
EDT Latitude Longitude Course Direction KTS MPH feet Rate Location/Type
Sun 06:20:31 PM 31.9889 -102.1306 113° Southeast 303 349 9,900  Level Fort Worth Center
Sun 06:21:31 PM 31.9569 -102.0408 113° Southeast 303 349 11,500 1,400 Climbing Fort Worth Center
Sun 06:22:00 PM 31.7455 -101.6153 106° East  Level FlightAware Approximate
Sun 06:22:31 PM 31.9211 -101.9339 112° Southeast 317 365 12,700  Level Fort Worth Center
Sun 06:23:00 PM 31.7205 -101.5153 106° East  Level FlightAware Approximate
Sun 06:23:31 PM 31.8853 -101.8219 111° Southeast 342 394 14,400  Level Fort Worth Center
Sun 06:24:00 PM 31.6917 -101.4166 109° East  Level FlightAware Approximate
Sun 06:24:31 PM 31.8853 -101.7022 90° East 359 413 15,900  Level Fort Worth Center
Sun 06:25:31 PM 31.8814 -101.5722 92° East 370 426 16,900 1,050 Climbing Fort Worth Center
Sun 06:26:31 PM 31.8372 -101.4531 114° Southeast 385 443 18,000 1,100 Climbing Fort Worth Center
Sun 06:27:31 PM 31.7806 -101.3308 119° Southeast 398 458 19,100 1,050 Climbing Fort Worth Center
Sun 06:28:31 PM 31.7219 -101.2011 118° Southeast 425 489 20,100 1,050 Climbing Fort Worth Center
Sun 06:29:31 PM 31.6631 -101.0744 119° Southeast 437 503 21,200 1,059 Climbing Fort Worth Center
Sun 06:30:30 PM 31.6042 -100.9428 118° Southeast 449 517 22,200 900 Climbing Fort Worth Center
Sun 06:31:31 PM 31.5389 -100.8086 120° Southeast 455 524 23,000 397 Climbing Fort Worth Center
Sun 06:32:31 PM 31.4758 -100.6700 118° Southeast 465 535 23,000  Level Fort Worth Center
Sun 06:34:37 PM 31.3464 -100.3694 117° Southeast 500 575 23,000  Level Houston Center
Sun 06:35:39 PM 31.2950 -100.2194 112° Southeast 498 573 23,000  Level Houston Center
Sun 06:36:41 PM 31.2439 -100.0678 111° Southeast 500 575 23,000  Level Houston Center
Sun 06:37:43 PM 31.1808 -99.8853 112° Southeast 504 580 23,000  Level Houston Center
Sun 06:38:45 PM 31.1297 -99.7347 112° Southeast 500 575 23,000  Level Houston Center
Sun 06:39:48 PM 31.0767 -99.5839 112° Southeast 501 577 23,000  Level Houston Center
Sun 06:40:50 PM 31.0242 -99.4325 112° Southeast 502 578 23,000  Level Houston Center
Sun 06:41:52 PM 30.9717 -99.2814 112° Southeast 503 579 23,000  Level Houston Center
Sun 06:42:54 PM 30.9122 -99.1161 113° Southeast 501 577 23,000  Level Houston Center
Sun 06:43:56 PM 30.8597 -98.9653 112° Southeast 500 575 23,000  Level Houston Center
Sun 06:44:58 PM 30.8069 -98.8133 112° Southeast 502 578 23,000  Level Houston Center
Sun 06:46:00 PM 30.7994 -98.6506 93° East 500 575 23,000  Level Houston Center
Sun 06:47:02 PM 30.8014 -98.4894 89° East 498 573 23,000  Level Houston Center
Sun 06:48:04 PM 30.8056 -98.2997 88° East 499 574 23,000  Level Houston Center
Sun 06:49:06 PM 30.8083 -98.1372 89° East 498 573 23,000  Level Houston Center
Sun 06:50:09 PM 30.8108 -97.9756 89° East 498 573 23,000  Level Houston Center
Sun 06:51:11 PM 30.8128 -97.8142 89° East 495 570 23,000  Level Houston Center
Sun 06:52:13 PM 30.8156 -97.6528 89° East 497 572 23,000  Level Houston Center
Sun 06:53:15 PM 30.8172 -97.4908 89° East 499 574 23,000  Level Houston Center
Sun 06:54:17 PM 30.8192 -97.3039 89° East 500 575 23,000  Level Houston Center
Sun 06:55:19 PM 30.8203 -97.1433 89° East 504 580 23,000 -48 Level Houston Center
Sun 06:56:21 PM 30.8172 -96.9828 91° East 500 575 22,900 -532 Descending Houston Center
Sun 06:57:23 PM 30.7728 -96.8278 108° East 500 575 21,900 -1,016 Descending Houston Center
Sun 06:58:25 PM 30.7236 -96.6789 111° Southeast 493 567 20,800 -1,452 Descending Houston Center
Sun 06:59:27 PM 30.6667 -96.5072 111° Southeast 484 557 18,900 -1,806 Descending Houston Center
Sun 07:00:08 PM 30.6367 -96.4192 112° Southeast 468 539 17,700 -1,839 Descending Houston Center
Sun 07:00:29 PM 30.6217 -96.3664 108° East 466 536 17,000 -2,027 Descending Houston Center
Sun 07:01:22 PM 30.5806 -96.2483 112° Southeast 431 496 15,200 -2,000 Descending Houston Center
Sun 07:02:17 PM 30.5414 -96.1317 111° Southeast 435 501 13,400 -1,833 Descending Houston Center
Sun 07:02:34 PM 30.5339 -96.1053 108° East 433 498 13,000 -1,967 Descending Houston Center
Sun 07:03:18 PM 30.4992 -96.0056 112° Southeast 396 456 11,400 -1,742 Descending Houston Center
Sun 07:03:36 PM 30.4931 -95.9856 110° East 407 468 11,200 -975 Descending Houston Center
Sun 07:04:38 PM 30.4564 -95.8747 111° Southeast 372 428 10,100 -800 Descending Houston Center
Sun 07:05:21 PM 30.3911 -95.8483 161° South 285 328 9,800 -387 Descending Houston Center
Sun 07:05:40 PM 30.3833 -95.8481 178° South 291 335 9,700 -1,258 Descending Houston Center
Sun 07:06:23 PM 30.3131 -95.8453 178° South 278 320 8,500 -1,548 Descending Houston Center
Sun 07:06:42 PM 30.2908 -95.8411 171° South 280 322 8,100 -537 Descending Houston Center
Sun 07:07:30 PM 30.2319 -95.8283 169° South 244 281 7,900 -757 Descending Houston Center
Sun 07:08:25 PM 30.1842 -95.7856 142° Southeast 244 281 6,800 -1,184 Descending Houston Center
Sun 07:08:46 PM 30.1717 -95.7744 142° Southeast 245 282 6,400 -1,200 Descending Houston Center
Sun 07:09:20 PM 30.1361 -95.7403 140° Southeast 243 280 5,700 -1,065 Descending Houston Center
Sun 07:09:48 PM 30.1194 -95.7239 140° Southeast 244 281 5,300 -568 Descending Houston Center
Sun 07:10:34 PM 30.0767 -95.6869 143° Southeast 232 267 5,000 -290 Descending Houston Center
Sun 07:10:50 PM 30.0694 -95.6797 139° Southeast 230 265 5,000  Level Houston Center
Sun 07:11:29 PM 30.0256 -95.6783 178° South 184 212 5,000  Level Houston Center
Sun 07:11:52 PM 30.0150 -95.6789 183° South 201 231 5,000 -436 Level Houston Center
Sun 07:12:24 PM 29.9894 -95.6514 137° Southeast 206 237 4,600 -774 Descending Houston Center
Sun 07:12:54 PM 29.9914 -95.6194 86° East 201 231 4,200 -618 Descending Houston Center
Sun 07:13:32 PM 29.9917 -95.5811 90° East 182 209 3,900 -667 Descending Houston Center
Sun 07:13:57 PM 29.9936 -95.5608 84° East 188 216 3,500 -1,082 Descending Houston Center
Sun 07:14:33 PM 29.9925 -95.5208 92° East 189 217 2,800 -968 Descending Houston Center
Sun 07:14:59 PM 29.9936 -95.5017 86° East 185 213 2,500 -871 Descending Houston Center
Sun 07:15:35 PM 29.9914 -95.4606 94° East 183 211 1,900 -871 Descending Houston Center
Sun 07:16:01 PM 29.9936 -95.4442 81° East 183 211 1,600 -787 Descending Houston Center
Sun 07:16:36 PM 29.9933 -95.4144 91° East 119 137 1,100 -857 Descending Houston Center

Login

Don't have an account? Register now (free) for customized features, flight alerts, and more!